createdAt,value
2017-11-17T00:00:43.496Z,10.40
2017-11-17T00:03:12.342Z,10.40
2017-11-17T00:05:40.364Z,10.40
2017-11-17T00:08:08.899Z,10.40
2017-11-17T00:10:36.375Z,10.40
2017-11-17T00:13:03.822Z,10.40
2017-11-17T00:15:31.308Z,10.40
2017-11-17T00:17:58.761Z,10.40
2017-11-17T00:20:26.294Z,10.50
2017-11-17T00:22:54.499Z,10.50
2017-11-17T00:25:22.518Z,10.60
2017-11-17T00:27:50.423Z,10.70
2017-11-17T00:30:18.253Z,10.70
2017-11-17T00:32:45.959Z,10.80
2017-11-17T00:35:14.615Z,10.70
2017-11-17T00:37:42.417Z,10.70
2017-11-17T00:40:10.745Z,10.70
2017-11-17T00:42:40.526Z,10.80
2017-11-17T00:45:08.425Z,10.80
2017-11-17T00:47:36.733Z,10.90
2017-11-17T00:50:07.164Z,10.90
2017-11-17T00:52:36.061Z,10.90
2017-11-17T00:55:05.685Z,10.90
2017-11-17T00:57:34.201Z,10.90
2017-11-17T01:00:03.610Z,11.00
2017-11-17T01:02:34.906Z,11.10
2017-11-17T01:05:04.376Z,11.10
2017-11-17T01:07:33.478Z,11.10
2017-11-17T01:10:02.543Z,11.20
2017-11-17T01:12:30.537Z,11.20
2017-11-17T01:14:59.788Z,11.20
2017-11-17T01:17:28.349Z,11.20
2017-11-17T01:19:57.395Z,11.20
2017-11-17T01:22:25.453Z,11.20
2017-11-17T01:24:54.664Z,11.20
2017-11-17T01:27:22.977Z,11.20
2017-11-17T01:29:58.811Z,11.20
2017-11-17T01:32:26.828Z,11.20
2017-11-17T01:34:56.107Z,11.20
2017-11-17T01:37:23.933Z,11.20
2017-11-17T01:39:51.646Z,11.20
2017-11-17T01:42:19.256Z,11.20
2017-11-17T01:44:47.950Z,11.20
2017-11-17T01:47:16.881Z,11.20
2017-11-17T01:49:46.220Z,11.20
2017-11-17T01:52:13.980Z,11.20
2017-11-17T01:54:42.847Z,11.20
2017-11-17T01:57:10.381Z,11.20
2017-11-17T01:59:38.498Z,11.20
2017-11-17T02:02:18.619Z,11.10
2017-11-17T02:04:46.153Z,11.10
2017-11-17T02:07:14.164Z,11.10
2017-11-17T02:09:41.676Z,11.10
2017-11-17T02:12:09.908Z,11.00
2017-11-17T02:14:37.475Z,11.00
2017-11-17T02:17:06.054Z,11.00
2017-11-17T02:19:34.695Z,11.00
2017-11-17T02:22:02.908Z,11.00
2017-11-17T02:24:31.026Z,11.00
2017-11-17T02:26:58.540Z,11.00
2017-11-17T02:29:26.435Z,11.00
2017-11-17T02:31:54.311Z,10.90
2017-11-17T02:34:22.639Z,10.90
2017-11-17T02:36:50.079Z,10.90
2017-11-17T02:39:18.893Z,10.90
2017-11-17T02:41:46.788Z,10.90
2017-11-17T02:44:14.237Z,10.90
2017-11-17T02:46:41.730Z,10.90
2017-11-17T02:49:10.459Z,10.90
2017-11-17T02:51:38.575Z,10.90
2017-11-17T02:54:07.521Z,10.80
2017-11-17T02:56:35.007Z,10.80
2017-11-17T02:59:02.763Z,10.80
2017-11-17T03:01:30.914Z,10.80
2017-11-17T03:03:58.477Z,10.80
2017-11-17T03:06:26.290Z,10.80
2017-11-17T03:08:54.135Z,10.80
2017-11-17T03:11:21.615Z,10.80
2017-11-17T03:13:49.863Z,10.80
2017-11-17T03:16:17.324Z,10.80
2017-11-17T03:18:45.310Z,10.80
2017-11-17T03:21:12.819Z,10.80
2017-11-17T03:23:40.295Z,10.70
2017-11-17T03:26:07.967Z,10.80
2017-11-17T03:28:35.947Z,10.70
2017-11-17T03:31:03.944Z,10.70
2017-11-17T03:33:32.712Z,10.70
2017-11-17T03:36:00.173Z,10.60
2017-11-17T03:38:28.417Z,10.60
2017-11-17T03:40:57.148Z,10.60
2017-11-17T03:43:25.361Z,10.50
2017-11-17T03:45:52.998Z,10.50
2017-11-17T03:48:20.474Z,10.50
2017-11-17T03:50:48.401Z,10.50
2017-11-17T03:53:15.850Z,10.50
2017-11-17T03:55:43.333Z,10.40
2017-11-17T03:58:11.252Z,10.40
2017-11-17T04:00:38.718Z,10.30
2017-11-17T04:03:06.781Z,10.30
2017-11-17T04:05:34.230Z,10.20
2017-11-17T04:08:01.910Z,10.20
2017-11-17T04:10:29.667Z,10.10
2017-11-17T04:12:58.647Z,10.10
2017-11-17T04:15:26.339Z,10.10
2017-11-17T04:17:54.693Z,10.00
2017-11-17T04:20:22.138Z,10.00
2017-11-17T04:22:49.605Z,10.00
2017-11-17T04:25:17.672Z,9.90
2017-11-17T04:27:45.453Z,9.90
2017-11-17T04:30:13.331Z,9.90
2017-11-17T04:32:42.094Z,9.80
2017-11-17T04:35:09.792Z,9.80
2017-11-17T04:37:38.434Z,9.70
2017-11-17T04:40:06.304Z,9.70
2017-11-17T04:42:33.832Z,9.70
2017-11-17T04:45:01.792Z,9.70
2017-11-17T04:47:29.264Z,9.60
2017-11-17T04:49:57.225Z,9.50
2017-11-17T04:52:24.781Z,9.50
2017-11-17T04:54:52.221Z,9.50
2017-11-17T04:57:19.698Z,9.40
2017-11-17T04:59:47.362Z,9.40
2017-11-17T05:02:15.326Z,9.30
2017-11-17T05:04:42.753Z,9.30
2017-11-17T05:07:11.389Z,9.30
2017-11-17T05:09:38.849Z,9.30
2017-11-17T05:12:06.615Z,9.20
2017-11-17T05:14:34.397Z,9.20
2017-11-17T05:17:01.910Z,9.20
2017-11-17T05:19:29.365Z,9.20
2017-11-17T05:21:56.893Z,9.10
2017-11-17T05:24:25.099Z,9.10
2017-11-17T05:26:52.897Z,9.10
2017-11-17T05:29:20.863Z,9.00
2017-11-17T05:31:48.691Z,9.00
2017-11-17T05:34:16.795Z,9.00
2017-11-17T05:36:44.330Z,8.90
2017-11-17T05:39:11.778Z,8.90
2017-11-17T05:41:39.234Z,8.90
2017-11-17T05:44:07.202Z,8.90
2017-11-17T05:46:34.647Z,8.80
2017-11-17T05:49:02.697Z,8.80
2017-11-17T05:51:30.902Z,8.70
2017-11-17T05:53:58.368Z,8.70
2017-11-17T05:56:25.848Z,8.70
2017-11-17T05:58:53.403Z,8.60
2017-11-17T06:01:21.269Z,8.60
2017-11-17T06:03:48.704Z,8.60
2017-11-17T06:06:16.695Z,8.60
2017-11-17T06:08:44.163Z,8.60
2017-11-17T06:11:11.682Z,8.50
2017-11-17T06:13:39.239Z,8.50
2017-11-17T06:16:06.950Z,8.50
2017-11-17T06:18:34.402Z,8.50
2017-11-17T06:21:01.907Z,8.50
2017-11-17T06:23:29.350Z,8.40
2017-11-17T06:25:57.078Z,8.40
2017-11-17T06:28:24.546Z,8.40
2017-11-17T06:30:53.319Z,8.30
2017-11-17T06:33:21.172Z,8.30
2017-11-17T06:35:49.052Z,8.30
2017-11-17T06:38:16.612Z,8.30
2017-11-17T06:40:44.843Z,8.20
2017-11-17T06:43:12.309Z,8.20
2017-11-17T06:45:39.757Z,8.20
2017-11-17T06:48:07.236Z,8.10
2017-11-17T06:50:35.025Z,8.10
2017-11-17T06:53:03.029Z,8.00
2017-11-17T06:55:30.486Z,8.00
2017-11-17T06:57:57.961Z,7.90
2017-11-17T07:00:25.415Z,7.90
2017-11-17T07:02:53.384Z,7.90
2017-11-17T07:05:21.867Z,7.90
2017-11-17T07:07:49.933Z,7.80
2017-11-17T07:10:17.424Z,7.80
2017-11-17T07:12:45.363Z,7.80
2017-11-17T07:15:12.817Z,7.80
2017-11-17T07:17:40.509Z,7.80
2017-11-17T07:20:07.964Z,7.70
2017-11-17T07:22:35.425Z,7.70
2017-11-17T07:25:04.286Z,7.70
2017-11-17T07:27:31.982Z,7.70
2017-11-17T07:30:00.014Z,7.70
2017-11-17T07:32:27.610Z,7.60
2017-11-17T07:34:55.360Z,7.60
2017-11-17T07:37:22.917Z,7.60
2017-11-17T07:39:50.350Z,7.60
2017-11-17T07:42:18.043Z,7.60
2017-11-17T07:44:45.907Z,7.60
2017-11-17T07:47:13.489Z,7.60
2017-11-17T07:49:41.404Z,7.60
2017-11-17T07:52:09.314Z,7.60
2017-11-17T07:54:38.266Z,7.60
2017-11-17T07:57:06.483Z,7.60
2017-11-17T07:59:33.939Z,7.60
2017-11-17T08:02:01.806Z,7.60
2017-11-17T08:04:29.244Z,7.60
2017-11-17T08:06:57.116Z,7.70
2017-11-17T08:09:24.542Z,7.70
2017-11-17T08:11:52.021Z,7.70
2017-11-17T08:14:19.588Z,7.70
2017-11-17T08:16:47.656Z,7.70
2017-11-17T08:19:15.490Z,7.70
2017-11-17T08:21:43.051Z,7.80
2017-11-17T08:24:10.611Z,7.80
2017-11-17T08:26:38.410Z,7.90
2017-11-17T08:29:05.846Z,7.90
2017-11-17T08:31:33.906Z,7.90
2017-11-17T08:34:01.804Z,7.90
2017-11-17T08:36:29.245Z,8.00
2017-11-17T08:38:56.709Z,8.00
2017-11-17T08:41:24.467Z,8.00
2017-11-17T08:43:51.902Z,8.00
2017-11-17T08:46:19.357Z,8.00
2017-11-17T08:48:47.467Z,8.00
2017-11-17T08:51:15.735Z,8.10
2017-11-17T08:53:43.174Z,8.10
2017-11-17T08:56:10.643Z,8.20
2017-11-17T08:58:38.145Z,8.20
2017-11-17T09:01:08.014Z,8.10
2017-11-17T09:03:35.685Z,8.30
2017-11-17T09:06:04.383Z,8.40
2017-11-17T09:08:31.844Z,8.40
2017-11-17T09:10:59.279Z,8.50
2017-11-17T09:13:26.799Z,8.60
2017-11-17T09:15:54.235Z,8.60
2017-11-17T09:18:21.722Z,8.70
2017-11-17T09:20:49.314Z,8.80
2017-11-17T09:23:16.751Z,8.90
2017-11-17T09:25:44.541Z,9.00
2017-11-17T09:28:12.564Z,9.10
2017-11-17T09:30:40.358Z,9.20
2017-11-17T09:33:07.803Z,9.30
2017-11-17T09:35:35.591Z,9.40
2017-11-17T09:38:03.025Z,9.50
2017-11-17T09:40:30.491Z,9.60
2017-11-17T09:42:57.927Z,9.70
2017-11-17T09:45:25.537Z,9.80
2017-11-17T09:47:53.767Z,10.10
2017-11-17T09:50:21.871Z,10.00
2017-11-17T09:52:49.309Z,10.10
2017-11-17T09:55:17.041Z,10.20
2017-11-17T09:57:44.496Z,10.40
2017-11-17T10:00:11.975Z,10.50
2017-11-17T10:02:39.858Z,10.60
2017-11-17T10:05:08.249Z,10.70
2017-11-17T10:07:36.626Z,10.80
2017-11-17T10:10:04.071Z,10.90
2017-11-17T10:12:31.622Z,11.00
2017-11-17T10:14:59.083Z,11.10
2017-11-17T10:17:27.062Z,11.20
2017-11-17T10:19:54.500Z,11.30
2017-11-17T10:22:21.975Z,11.40
2017-11-17T10:24:49.440Z,11.50
2017-11-17T10:27:18.101Z,11.80
2017-11-17T10:29:45.606Z,11.80
2017-11-17T10:32:13.834Z,11.90
2017-11-17T10:34:41.819Z,12.00
2017-11-17T10:37:09.531Z,12.10
2017-11-17T10:39:37.462Z,12.20
2017-11-17T10:42:05.779Z,12.40
2017-11-17T10:44:33.345Z,12.40
2017-11-17T10:47:00.822Z,12.50
2017-11-17T10:49:28.924Z,12.60
2017-11-17T10:51:56.365Z,12.70
2017-11-17T10:54:23.850Z,12.80
2017-11-17T10:56:56.763Z,13.00
2017-11-17T10:59:24.219Z,12.90
2017-11-17T11:01:52.018Z,13.00
2017-11-17T11:04:19.529Z,13.10
2017-11-17T11:06:47.335Z,13.20
2017-11-17T11:09:15.676Z,13.30
2017-11-17T11:11:49.007Z,13.40
2017-11-17T11:14:16.747Z,13.60
2017-11-17T11:16:44.213Z,13.70
2017-11-17T11:19:11.794Z,13.90
2017-11-17T11:21:39.279Z,14.00
2017-11-17T11:24:07.703Z,14.30
2017-11-17T11:26:35.254Z,14.30
2017-11-17T11:29:03.095Z,14.30
2017-11-17T11:31:31.652Z,14.50
2017-11-17T11:34:00.130Z,14.70
2017-11-17T11:36:29.096Z,15.00
2017-11-17T11:38:57.106Z,14.90
2017-11-17T11:41:25.673Z,15.40
2017-11-17T11:43:53.120Z,15.40
2017-11-17T11:46:20.631Z,15.60
2017-11-17T11:48:48.811Z,15.90
2017-11-17T11:51:16.883Z,16.10
2017-11-17T11:53:44.370Z,16.30
2017-11-17T11:56:11.824Z,16.50
2017-11-17T11:58:39.315Z,16.60
2017-11-17T12:01:07.976Z,16.70
2017-11-17T12:03:36.401Z,16.70
2017-11-17T12:06:05.308Z,16.80
2017-11-17T12:08:33.087Z,16.90
2017-11-17T12:11:00.549Z,16.90
2017-11-17T12:13:28.015Z,16.80
2017-11-17T12:15:56.384Z,16.90
2017-11-17T12:18:23.972Z,17.00
2017-11-17T12:20:51.698Z,17.20
2017-11-17T12:23:19.194Z,17.20
2017-11-17T12:25:46.663Z,17.00
2017-11-17T12:28:15.447Z,16.30
2017-11-17T12:30:43.370Z,16.30
2017-11-17T12:33:10.825Z,16.20
2017-11-17T12:35:38.731Z,16.30
2017-11-17T12:38:06.201Z,16.40
2017-11-17T12:40:34.524Z,16.40
2017-11-17T12:43:01.999Z,16.40
2017-11-17T12:45:29.442Z,16.20
2017-11-17T12:47:57.238Z,15.90
2017-11-17T12:50:25.180Z,15.60
2017-11-17T12:52:52.875Z,15.40
2017-11-17T12:55:20.391Z,15.30
2017-11-17T12:57:47.946Z,15.10
2017-11-17T13:00:15.443Z,14.90
2017-11-17T13:02:43.403Z,14.70
2017-11-17T13:05:10.873Z,14.60
2017-11-17T13:07:38.723Z,14.60
2017-11-17T13:10:06.176Z,14.70
2017-11-17T13:12:33.648Z,15.10
2017-11-17T13:15:01.106Z,15.40
2017-11-17T13:17:29.838Z,15.60
2017-11-17T13:19:57.275Z,16.00
2017-11-17T13:22:25.768Z,16.60
2017-11-17T13:24:53.249Z,16.50
2017-11-17T13:27:20.767Z,16.80
2017-11-17T13:29:48.599Z,17.10
2017-11-17T13:32:17.080Z,17.30
2017-11-17T13:34:44.909Z,17.50
2017-11-17T13:37:12.470Z,17.60
2017-11-17T13:39:40.386Z,17.70
2017-11-17T13:42:07.897Z,17.80
2017-11-17T13:44:35.453Z,17.90
2017-11-17T13:47:02.910Z,17.90
2017-11-17T13:49:31.031Z,17.80
2017-11-17T13:52:00.516Z,17.50
2017-11-17T13:54:28.007Z,17.50
2017-11-17T13:56:56.390Z,16.80
2017-11-17T13:59:24.903Z,16.40
2017-11-17T14:01:52.823Z,16.30
2017-11-17T14:04:22.079Z,15.70
2017-11-17T14:06:50.098Z,15.70
2017-11-17T14:09:18.696Z,15.10
2017-11-17T14:11:46.935Z,14.80
2017-11-17T14:14:14.400Z,14.80
2017-11-17T14:16:41.862Z,14.60
2017-11-17T14:19:09.330Z,14.40
2017-11-17T14:21:37.788Z,14.30
2017-11-17T14:24:05.232Z,14.20
2017-11-17T14:26:32.690Z,14.20
2017-11-17T14:29:00.458Z,14.10
2017-11-17T14:31:28.367Z,14.00
2017-11-17T14:33:57.624Z,13.80
2017-11-17T14:36:25.112Z,13.70
2017-11-17T14:38:53.450Z,13.60
2017-11-17T14:41:20.994Z,13.60
2017-11-17T14:43:48.424Z,13.60
2017-11-17T14:46:16.254Z,13.60
2017-11-17T14:48:43.742Z,13.70
2017-11-17T14:51:11.470Z,13.70
2017-11-17T14:53:38.935Z,13.80
2017-11-17T14:56:07.156Z,13.90
2017-11-17T14:58:34.711Z,13.90
2017-11-17T15:01:02.402Z,13.90
2017-11-17T15:03:30.379Z,13.80
2017-11-17T15:05:58.614Z,13.80
2017-11-17T15:08:26.091Z,13.90
2017-11-17T15:10:53.632Z,13.90
2017-11-17T15:13:21.740Z,13.80
2017-11-17T15:15:49.181Z,13.70
2017-11-17T15:18:16.665Z,13.50
2017-11-17T15:20:45.096Z,13.20
2017-11-17T15:23:13.163Z,13.20
2017-11-17T15:25:41.088Z,13.10
2017-11-17T15:28:08.547Z,13.00
2017-11-17T15:30:37.253Z,12.80
2017-11-17T15:33:04.703Z,12.80
2017-11-17T15:35:33.374Z,12.60
2017-11-17T15:38:00.807Z,12.60
2017-11-17T15:40:28.277Z,12.50
2017-11-17T15:42:56.237Z,12.40
2017-11-17T15:45:23.712Z,12.40
2017-11-17T15:47:52.414Z,12.10
2017-11-17T15:50:21.096Z,12.00
2017-11-17T15:52:49.330Z,11.90
2017-11-17T15:55:16.807Z,11.90
2017-11-17T15:57:44.482Z,11.80
2017-11-17T16:00:12.803Z,11.60
2017-11-17T16:02:40.714Z,11.50
2017-11-17T16:05:08.690Z,11.50
2017-11-17T16:07:36.700Z,11.40
2017-11-17T16:10:04.182Z,11.40
2017-11-17T16:12:32.315Z,11.40
2017-11-17T16:15:00.613Z,11.40
2017-11-17T16:17:28.543Z,11.30
2017-11-17T16:19:56.857Z,11.30
2017-11-17T16:22:24.584Z,11.30
2017-11-17T16:24:52.854Z,11.30
2017-11-17T16:27:21.458Z,11.30
2017-11-17T16:29:49.312Z,11.30
2017-11-17T16:32:17.898Z,11.30
2017-11-17T16:34:46.420Z,11.20
2017-11-17T16:37:13.917Z,11.20
2017-11-17T16:39:41.384Z,11.20
2017-11-17T16:42:09.615Z,11.00
2017-11-17T16:44:37.181Z,11.00
2017-11-17T16:47:04.688Z,10.90
2017-11-17T16:49:33.588Z,10.70
2017-11-17T16:52:01.064Z,10.70
2017-11-17T16:54:29.410Z,10.60
2017-11-17T16:56:56.845Z,10.60
2017-11-17T16:59:24.376Z,10.50
2017-11-17T17:01:52.583Z,10.40
2017-11-17T17:04:20.666Z,10.40
2017-11-17T17:06:49.475Z,10.20
2017-11-17T17:09:16.959Z,10.20
2017-11-17T17:11:44.423Z,10.20
2017-11-17T17:14:11.884Z,10.10
2017-11-17T17:16:39.760Z,10.00
2017-11-17T17:19:07.222Z,10.00
2017-11-17T17:21:35.382Z,9.90
2017-11-17T17:24:02.855Z,9.90
2017-11-17T17:26:30.876Z,9.90
2017-11-17T17:29:00.248Z,9.90
2017-11-17T17:31:28.224Z,9.90
2017-11-17T17:33:57.168Z,9.90
2017-11-17T17:36:24.643Z,9.90
2017-11-17T17:38:52.195Z,9.90
2017-11-17T17:41:19.662Z,9.90
2017-11-17T17:43:47.185Z,9.90
2017-11-17T17:46:14.623Z,9.90
2017-11-17T17:48:42.217Z,9.90
2017-11-17T17:51:10.129Z,9.90
2017-11-17T17:53:38.171Z,9.80
2017-11-17T17:56:07.044Z,9.80
2017-11-17T17:58:34.491Z,9.70
2017-11-17T18:01:02.796Z,9.70
2017-11-17T18:03:30.721Z,9.60
2017-11-17T18:05:58.822Z,9.60
2017-11-17T18:08:26.295Z,9.60
2017-11-17T18:10:54.882Z,9.50
2017-11-17T18:13:23.092Z,9.50
2017-11-17T18:15:50.573Z,9.50
2017-11-17T18:18:18.033Z,9.60
2017-11-17T18:20:45.706Z,9.60
2017-11-17T18:23:13.155Z,9.50
2017-11-17T18:25:41.269Z,9.60
2017-11-17T18:28:10.332Z,9.60
2017-11-17T18:30:38.202Z,9.60
2017-11-17T18:33:05.652Z,9.60
2017-11-17T18:35:33.448Z,9.60
2017-11-17T18:38:00.934Z,9.60
2017-11-17T18:40:28.415Z,9.60
2017-11-17T18:42:55.869Z,9.50
2017-11-17T18:45:23.525Z,9.50
2017-11-17T18:47:51.450Z,9.50
2017-11-17T18:50:19.918Z,9.40
2017-11-17T18:52:47.410Z,9.40
2017-11-17T18:55:15.252Z,9.40
2017-11-17T18:57:43.572Z,9.30
2017-11-17T19:00:11.808Z,9.30
2017-11-17T19:02:40.677Z,9.20
2017-11-17T19:05:08.979Z,9.20
2017-11-17T19:07:36.931Z,9.20
2017-11-17T19:10:05.207Z,9.10
2017-11-17T19:12:32.672Z,9.00
2017-11-17T19:15:00.114Z,9.00
2017-11-17T19:17:27.779Z,9.00
2017-11-17T19:19:56.206Z,8.80
2017-11-17T19:22:24.001Z,8.90
2017-11-17T19:24:52.509Z,8.80
2017-11-17T19:27:20.919Z,8.70
2017-11-17T19:29:49.159Z,8.70
2017-11-17T19:32:17.890Z,8.60
2017-11-17T19:34:46.125Z,8.60
2017-11-17T19:37:14.399Z,8.60
2017-11-17T19:39:42.629Z,8.50
2017-11-17T19:42:10.112Z,8.50
2017-11-17T19:44:37.928Z,8.50
2017-11-17T19:47:05.376Z,8.50
2017-11-17T19:49:33.343Z,8.50
2017-11-17T19:52:00.892Z,8.40
2017-11-17T19:54:28.450Z,8.30
2017-11-17T19:56:55.938Z,8.20
2017-11-17T19:59:24.171Z,8.20
2017-11-17T20:01:54.035Z,8.10
2017-11-17T20:04:21.533Z,8.10
2017-11-17T20:06:50.376Z,8.20
2017-11-17T20:09:17.947Z,8.20
2017-11-17T20:11:45.452Z,8.20
2017-11-17T20:14:12.908Z,8.30
2017-11-17T20:16:41.422Z,8.40
2017-11-17T20:19:08.883Z,8.30
2017-11-17T20:21:36.732Z,8.40
2017-11-17T20:24:04.282Z,8.40
2017-11-17T20:26:32.293Z,8.50
2017-11-17T20:28:59.739Z,8.50
2017-11-17T20:31:27.870Z,8.60
2017-11-17T20:33:56.043Z,8.60
2017-11-17T20:36:24.157Z,8.70
2017-11-17T20:38:52.263Z,8.70
2017-11-17T20:41:20.493Z,8.70
2017-11-17T20:43:48.141Z,8.70
2017-11-17T20:46:15.601Z,8.70
2017-11-17T20:48:43.404Z,8.80
2017-11-17T20:51:12.132Z,8.80
2017-11-17T20:53:39.631Z,8.80
2017-11-17T20:56:07.269Z,8.80
2017-11-17T20:58:34.716Z,8.80
2017-11-17T21:01:02.934Z,8.80
2017-11-17T21:03:30.483Z,8.80
2017-11-17T21:05:58.469Z,8.80
2017-11-17T21:08:25.945Z,8.80
2017-11-17T21:10:54.277Z,8.80
2017-11-17T21:13:21.816Z,8.80
2017-11-17T21:15:49.508Z,8.80
2017-11-17T21:18:16.955Z,8.80
2017-11-17T21:20:44.461Z,8.70
2017-11-17T21:23:12.831Z,8.60
2017-11-17T21:25:41.766Z,8.60
2017-11-17T21:28:09.729Z,8.60
2017-11-17T21:30:37.720Z,8.60
2017-11-17T21:33:05.184Z,8.60
2017-11-17T21:35:33.467Z,8.60
2017-11-17T21:38:00.937Z,8.50
2017-11-17T21:40:29.894Z,8.50
2017-11-17T21:42:57.439Z,8.50
2017-11-17T21:45:24.962Z,8.50
2017-11-17T21:47:52.467Z,8.50
2017-11-17T21:50:20.444Z,8.50
2017-11-17T21:52:48.292Z,8.50
2017-11-17T21:55:15.795Z,8.50
2017-11-17T21:57:43.310Z,8.50
2017-11-17T22:00:10.865Z,8.40
2017-11-17T22:02:38.961Z,8.40
2017-11-17T22:05:06.422Z,8.40
2017-11-17T22:07:34.458Z,8.40
2017-11-17T22:10:01.924Z,8.40
2017-11-17T22:12:29.398Z,8.40
2017-11-17T22:14:57.087Z,8.50
2017-11-17T22:17:25.317Z,8.40
2017-11-17T22:19:52.845Z,8.40
2017-11-17T22:22:20.360Z,8.40
2017-11-17T22:24:48.476Z,8.40
2017-11-17T22:27:16.050Z,8.30
2017-11-17T22:29:43.495Z,8.30
2017-11-17T22:32:11.402Z,8.30
2017-11-17T22:34:39.400Z,8.30
2017-11-17T22:37:06.839Z,8.30
2017-11-17T22:39:34.318Z,8.20
2017-11-17T22:42:01.816Z,8.20
2017-11-17T22:44:29.272Z,8.20
2017-11-17T22:46:56.712Z,8.10
2017-11-17T22:49:24.899Z,8.10
2017-11-17T22:51:52.360Z,8.00
2017-11-17T22:54:19.823Z,8.00
2017-11-17T22:56:47.375Z,8.00
2017-11-17T22:59:14.866Z,7.90
2017-11-17T23:01:42.842Z,7.90
2017-11-17T23:04:11.719Z,7.90
2017-11-17T23:06:39.968Z,7.90
2017-11-17T23:09:07.560Z,7.90
2017-11-17T23:11:35.010Z,7.80
2017-11-17T23:14:02.448Z,7.80
2017-11-17T23:16:29.916Z,7.70
2017-11-17T23:18:57.778Z,7.60
2017-11-17T23:21:25.230Z,7.50
2017-11-17T23:23:52.705Z,7.50
2017-11-17T23:26:20.180Z,7.40
2017-11-17T23:28:47.938Z,7.40
2017-11-17T23:31:15.812Z,7.40
2017-11-17T23:33:43.903Z,7.40
2017-11-17T23:36:12.154Z,7.40
2017-11-17T23:38:39.631Z,7.40
2017-11-17T23:41:07.970Z,7.40
2017-11-17T23:43:35.495Z,7.30
2017-11-17T23:46:02.925Z,7.30
2017-11-17T23:48:31.187Z,7.20
2017-11-17T23:51:00.673Z,7.20
2017-11-17T23:53:29.359Z,7.20
2017-11-17T23:55:56.874Z,7.20
2017-11-17T23:58:24.434Z,7.20
